Time;durP1;ratioP1;P1;durP2;ratioP2;P2;SDS_P1;SDS_P2;PMS_P1;PMS_P2;Temp;Humidity;BMP_temperature;BMP_pressure;BME280_temperature;BME280_humidity;BME280_pressure;Samples;Min_cycle;Max_cycle;Signal;HPM_P1;HPM_P2
2021/03/09 00:01:48;;;;;;;32.83;21.25;;;;;;;;;;5108943;28;20530;-77
2021/03/09 00:04:14;;;;;;;31.08;19.33;;;;;;;;;;5094755;28;20031;-77
2021/03/09 00:06:40;;;;;;;27.63;16.27;;;;;;;;;;5094028;28;20500;-77
2021/03/09 00:09:06;;;;;;;41.17;23.98;;;;;;;;;;5095413;28;20442;-77
2021/03/09 00:11:33;;;;;;;39.28;23.35;;;;;;;;;;5094827;28;20508;-78
2021/03/09 00:13:59;;;;;;;30.08;19.02;;;;;;;;;;5095291;28;20032;-77
2021/03/09 00:16:25;;;;;;;33.83;18.83;;;;;;;;;;5095416;28;20480;-76
2021/03/09 00:18:52;;;;;;;37.50;24.77;;;;;;;;;;5094168;28;20051;-77
2021/03/09 00:21:18;;;;;;;41.60;25.20;;;;;;;;;;5094542;28;20028;-76
2021/03/09 00:23:44;;;;;;;36.97;22.08;;;;;;;;;;5095075;28;20048;-77
2021/03/09 00:26:10;;;;;;;31.08;21.02;;;;;;;;;;5094574;28;20020;-77
2021/03/09 00:28:37;;;;;;;32.17;20.98;;;;;;;;;;5094850;28;20388;-77
2021/03/09 00:31:03;;;;;;;31.52;20.25;;;;;;;;;;5094880;28;20091;-78
2021/03/09 00:33:29;;;;;;;31.80;18.15;;;;;;;;;;5094491;28;20108;-78
2021/03/09 00:35:55;;;;;;;25.63;16.77;;;;;;;;;;5097679;28;20024;-78
2021/03/09 00:38:21;;;;;;;29.50;18.35;;;;;;;;;;5113278;28;20022;-76
2021/03/09 00:40:48;;;;;;;25.08;16.10;;;;;;;;;;5114765;28;20480;-78
2021/03/09 00:43:14;;;;;;;31.20;18.77;;;;;;;;;;5114913;28;20020;-77
2021/03/09 00:45:40;;;;;;;29.00;15.85;;;;;;;;;;5114991;28;20076;-77
2021/03/09 00:48:07;;;;;;;25.23;17.35;;;;;;;;;;5104753;28;20020;-77
2021/03/09 00:50:33;;;;;;;33.72;19.90;;;;;;;;;;5094258;28;20040;-76
2021/03/09 00:52:59;;;;;;;36.65;21.30;;;;;;;;;;5105591;28;20077;-78
2021/03/09 00:55:25;;;;;;;28.33;18.25;;;;;;;;;;5114872;28;20028;-77
2021/03/09 00:57:55;;;;;;;25.30;16.00;;;;;;;;;;5115004;28;20099;-78
2021/03/09 01:00:22;;;;;;;28.98;17.38;;;;;;;;;;5114077;28;20028;-77
2021/03/09 01:02:48;;;;;;;36.38;21.73;;;;;;;;;;5114751;28;20028;-77
2021/03/09 01:05:14;;;;;;;35.38;20.60;;;;;;;;;;5114936;28;20020;-77
2021/03/09 01:07:40;;;;;;;36.05;21.73;;;;;;;;;;5113802;28;20077;-77
2021/03/09 01:10:07;;;;;;;37.30;23.02;;;;;;;;;;5114349;28;20391;-76
2021/03/09 01:12:33;;;;;;;29.83;18.05;;;;;;;;;;5114517;28;20015;-77
2021/03/09 01:14:59;;;;;;;40.58;22.40;;;;;;;;;;5114087;28;20028;-77
2021/03/09 01:17:25;;;;;;;33.03;19.55;;;;;;;;;;5114798;28;20030;-77
2021/03/09 01:19:51;;;;;;;45.38;24.75;;;;;;;;;;5112113;28;20406;-77
2021/03/09 01:22:18;;;;;;;43.97;21.40;;;;;;;;;;5113987;28;20054;-76
2021/03/09 01:24:44;;;;;;;33.50;20.08;;;;;;;;;;5113851;28;20028;-77
2021/03/09 01:27:11;;;;;;;42.10;23.60;;;;;;;;;;5114248;28;20019;-77
2021/03/09 01:29:37;;;;;;;35.78;20.60;;;;;;;;;;5113794;28;20023;-78
2021/03/09 01:32:04;;;;;;;30.95;16.55;;;;;;;;;;5113466;28;20098;-78
2021/03/09 01:34:31;;;;;;;37.75;20.42;;;;;;;;;;5113341;28;20049;-78
2021/03/09 01:36:57;;;;;;;30.83;19.08;;;;;;;;;;5113822;28;20514;-79
2021/03/09 01:39:23;;;;;;;33.65;19.52;;;;;;;;;;5114142;28;20429;-77
2021/03/09 01:41:49;;;;;;;33.22;17.83;;;;;;;;;;5113916;28;20020;-78
2021/03/09 01:44:16;;;;;;;34.05;20.40;;;;;;;;;;5113471;28;20045;-77
2021/03/09 01:46:43;;;;;;;32.42;18.10;;;;;;;;;;5112502;28;20016;-77
2021/03/09 01:49:10;;;;;;;28.23;17.92;;;;;;;;;;5113065;28;20043;-77
2021/03/09 01:51:37;;;;;;;29.20;17.52;;;;;;;;;;5103328;28;20073;-77
2021/03/09 01:54:03;;;;;;;31.52;18.67;;;;;;;;;;5093331;28;20117;-78
2021/03/09 01:56:29;;;;;;;35.17;19.92;;;;;;;;;;5092871;28;20369;-77
2021/03/09 01:58:56;;;;;;;30.52;19.00;;;;;;;;;;5098879;28;20480;-78
2021/03/09 02:01:22;;;;;;;41.70;23.80;;;;;;;;;;5113701;28;20024;-77
2021/03/09 02:03:50;;;;;;;37.30;22.73;;;;;;;;;;5112690;28;20027;-77
2021/03/09 02:06:17;;;;;;;36.28;22.33;;;;;;;;;;5110820;28;20024;-77
2021/03/09 02:08:45;;;;;;;37.33;23.63;;;;;;;;;;5105514;28;20043;-77
2021/03/09 02:11:34;;;;;;;42.17;24.38;;;;;;;;;;5104716;28;20047;-76
2021/03/09 02:14:05;;;;;;;40.50;24.17;;;;;;;;;;5061900;28;20037;-77
2021/03/09 02:16:35;;;;;;;37.83;24.33;;;;;;;;;;5072738;28;20035;-75
2021/03/09 02:19:08;;;;;;;37.13;22.02;;;;;;;;;;5072424;28;20030;-77
2021/03/09 02:21:58;;;;;;;36.13;21.70;;;;;;;;;;5098507;28;20020;-76
2021/03/09 02:24:27;;;;;;;40.30;23.50;;;;;;;;;;5112797;28;20102;-75
2021/03/09 02:27:16;;;;;;;45.67;25.55;;;;;;;;;;5113209;28;20032;-75
2021/03/09 02:29:42;;;;;;;39.80;25.15;;;;;;;;;;5104607;28;20051;-76
2021/03/09 02:32:10;;;;;;;41.50;26.13;;;;;;;;;;5112590;28;20045;-76
2021/03/09 02:34:40;;;;;;;47.83;26.17;;;;;;;;;;5113073;28;20050;-76
2021/03/09 02:37:09;;;;;;;39.38;24.30;;;;;;;;;;5112796;28;20035;-78
2021/03/09 02:39:36;;;;;;;37.05;22.92;;;;;;;;;;5112745;28;20095;-77
2021/03/09 02:42:04;;;;;;;40.03;22.63;;;;;;;;;;5112998;28;20031;-76
2021/03/09 02:44:31;;;;;;;45.42;25.02;;;;;;;;;;5111481;28;20084;-75
2021/03/09 02:46:58;;;;;;;33.17;20.50;;;;;;;;;;5096685;28;20039;-76
2021/03/09 02:49:26;;;;;;;35.85;20.10;;;;;;;;;;5090940;28;20384;-76
2021/03/09 02:51:53;;;;;;;32.15;18.77;;;;;;;;;;5092108;28;20026;-75
2021/03/09 02:54:19;;;;;;;37.80;19.02;;;;;;;;;;5092113;28;20024;-76
2021/03/09 02:56:46;;;;;;;26.40;15.43;;;;;;;;;;5092445;28;20020;-77
2021/03/09 02:59:14;;;;;;;22.75;15.50;;;;;;;;;;5092685;28;20024;-76
2021/03/09 03:01:44;;;;;;;23.10;15.48;;;;;;;;;;5092022;28;20476;-78
2021/03/09 03:04:13;;;;;;;29.67;17.35;;;;;;;;;;5092302;28;20035;-76
2021/03/09 03:06:40;;;;;;;28.77;17.48;;;;;;;;;;5091957;28;20073;-76
2021/03/09 03:09:07;;;;;;;26.70;16.58;;;;;;;;;;5092142;28;20103;-75
2021/03/09 03:11:33;;;;;;;29.60;17.52;;;;;;;;;;5092285;28;20028;-76
2021/03/09 03:14:05;;;;;;;26.20;16.58;;;;;;;;;;5091884;28;20085;-76
2021/03/09 03:16:31;;;;;;;30.20;18.00;;;;;;;;;;5092290;28;20016;-75
2021/03/09 03:19:00;;;;;;;31.48;16.50;;;;;;;;;;5092418;28;20452;-77
2021/03/09 03:21:27;;;;;;;22.80;15.65;;;;;;;;;;5091807;28;20019;-75
2021/03/09 03:23:54;;;;;;;24.95;14.68;;;;;;;;;;5092147;28;20104;-75
2021/03/09 03:26:21;;;;;;;28.50;15.77;;;;;;;;;;5090826;28;20107;-75
2021/03/09 03:28:47;;;;;;;22.17;13.43;;;;;;;;;;5089546;28;20128;-76
2021/03/09 03:31:14;;;;;;;23.92;13.90;;;;;;;;;;5092206;28;20438;-76
2021/03/09 03:33:40;;;;;;;26.95;14.30;;;;;;;;;;5091887;28;20062;-77
2021/03/09 03:36:07;;;;;;;22.02;13.73;;;;;;;;;;5091790;28;20078;-77
2021/03/09 03:38:40;;;;;;;25.15;15.18;;;;;;;;;;5092415;28;20012;-77
2021/03/09 03:41:06;;;;;;;;;;;;;;;;;;5092670;28;20059;-76
2021/03/09 03:43:32;;;;;;;25.63;14.68;;;;;;;;;;5103018;28;20355;-76
2021/03/09 03:45:59;;;;;;;24.58;13.05;;;;;;;;;;5112373;28;20077;-76
2021/03/09 03:48:25;;;;;;;19.45;11.15;;;;;;;;;;5111644;28;20453;-74
2021/03/09 03:50:52;;;;;;;19.42;10.98;;;;;;;;;;5111229;28;20028;-76
2021/03/09 03:53:28;;;;;;;19.70;12.52;;;;;;;;;;5112160;28;20059;-76
2021/03/09 03:56:12;;;;;;;23.15;13.05;;;;;;;;;;5107668;28;20039;-76
2021/03/09 03:58:45;;;;;;;24.30;13.15;;;;;;;;;;5074125;28;20095;-77
2021/03/09 04:01:13;;;;;;;23.80;13.00;;;;;;;;;;5075400;28;20027;-77
2021/03/09 04:03:39;;;;;;;21.65;12.45;;;;;;;;;;5074691;28;20035;-76
2021/03/09 04:06:06;;;;;;;23.25;14.52;;;;;;;;;;5094122;28;20504;-76
2021/03/09 04:08:34;;;;;;;19.65;11.60;;;;;;;;;;5095235;28;20032;-76
2021/03/09 04:11:02;;;;;;;21.63;12.63;;;;;;;;;;5094926;28;20494;-76
2021/03/09 04:13:28;;;;;;;20.85;12.55;;;;;;;;;;5095277;28;20020;-76
2021/03/09 04:15:55;;;;;;;20.33;10.20;;;;;;;;;;5110983;28;20032;-76
2021/03/09 04:18:23;;;;;;;21.85;11.65;;;;;;;;;;5115130;28;20016;-76
2021/03/09 04:20:49;;;;;;;18.83;12.07;;;;;;;;;;5103602;28;20027;-76
2021/03/09 04:23:16;;;;;;;19.85;11.68;;;;;;;;;;5095227;28;20081;-76
2021/03/09 04:25:43;;;;;;;19.55;12.35;;;;;;;;;;5094744;28;20042;-76
2021/03/09 04:28:10;;;;;;;26.45;14.68;;;;;;;;;;5094943;28;20016;-75
2021/03/09 04:30:36;;;;;;;28.95;15.77;;;;;;;;;;5094966;28;20111;-76
2021/03/09 04:33:03;;;;;;;28.70;15.10;;;;;;;;;;5094835;28;20020;-76
2021/03/09 04:35:29;;;;;;;31.02;15.00;;;;;;;;;;5094412;28;20024;-76
2021/03/09 04:37:56;;;;;;;25.83;14.45;;;;;;;;;;5095219;28;20020;-77
2021/03/09 04:40:22;;;;;;;20.23;12.38;;;;;;;;;;5098722;28;20024;-77
2021/03/09 04:42:48;;;;;;;23.13;12.45;;;;;;;;;;5096916;28;20024;-76
2021/03/09 04:45:15;;;;;;;27.67;14.25;;;;;;;;;;5094702;28;20047;-76
2021/03/09 04:47:41;;;;;;;26.98;14.80;;;;;;;;;;5103931;28;20020;-77
2021/03/09 04:50:09;;;;;;;24.05;13.23;;;;;;;;;;5114808;28;20050;-77
2021/03/09 04:52:35;;;;;;;22.13;13.45;;;;;;;;;;5114719;28;20034;-76
2021/03/09 04:55:03;;;;;;;28.70;13.95;;;;;;;;;;5114904;28;20031;-77
2021/03/09 04:57:39;;;;;;;15.57;10.73;;;;;;;;;;5113903;28;20491;-77
2021/03/09 05:00:06;;;;;;;29.70;15.30;;;;;;;;;;5113258;28;20527;-77
2021/03/09 05:02:33;;;;;;;25.63;13.35;;;;;;;;;;5115023;28;20019;-77
2021/03/09 05:04:59;;;;;;;26.83;15.02;;;;;;;;;;5114766;28;20502;-77
2021/03/09 05:07:25;;;;;;;32.95;12.90;;;;;;;;;;5114358;28;20099;-77
2021/03/09 05:09:51;;;;;;;24.42;13.52;;;;;;;;;;5114532;28;20043;-78
2021/03/09 05:12:17;;;;;;;28.52;14.18;;;;;;;;;;5114576;28;20016;-78
2021/03/09 05:14:44;;;;;;;23.63;11.73;;;;;;;;;;5114153;28;20024;-77
2021/03/09 05:17:10;;;;;;;20.98;12.25;;;;;;;;;;5114419;28;20030;-76
2021/03/09 05:19:36;;;;;;;25.88;12.50;;;;;;;;;;5114454;28;20495;-76
2021/03/09 05:22:02;;;;;;;25.05;13.65;;;;;;;;;;5114198;28;20361;-78
2021/03/09 05:24:28;;;;;;;26.70;14.07;;;;;;;;;;5113212;28;20038;-79
2021/03/09 05:26:55;;;;;;;19.52;12.32;;;;;;;;;;5112904;28;20023;-77
2021/03/09 05:29:21;;;;;;;20.50;12.70;;;;;;;;;;5111755;28;20031;-78
2021/03/09 05:31:47;;;;;;;23.75;13.90;;;;;;;;;;5112781;28;20425;-79
2021/03/09 05:34:13;;;;;;;23.60;13.52;;;;;;;;;;5101257;28;20053;-76
2021/03/09 05:36:40;;;;;;;25.55;13.27;;;;;;;;;;5093601;28;20473;-77
2021/03/09 05:39:06;;;;;;;26.05;12.52;;;;;;;;;;5093738;28;20027;-79
2021/03/09 05:41:33;;;;;;;25.98;13.85;;;;;;;;;;5093369;28;20617;-78
2021/03/09 05:44:01;;;;;;;29.65;18.10;;;;;;;;;;5103421;28;20410;-78
2021/03/09 05:46:28;;;;;;;22.00;12.85;;;;;;;;;;5112578;28;20024;-77
2021/03/09 05:48:54;;;;;;;22.92;12.38;;;;;;;;;;5109936;28;20153;-76
2021/03/09 05:51:21;;;;;;;25.58;14.32;;;;;;;;;;5110463;28;20035;-77
2021/03/09 05:53:47;;;;;;;21.98;12.73;;;;;;;;;;5110803;28;20024;-77
2021/03/09 05:56:13;;;;;;;22.90;12.73;;;;;;;;;;5110912;28;20515;-77
2021/03/09 05:58:40;;;;;;;22.00;13.07;;;;;;;;;;5112423;28;20128;-78
2021/03/09 06:01:06;;;;;;;18.85;11.63;;;;;;;;;;5112677;28;20080;-77
2021/03/09 06:03:32;;;;;;;29.30;13.95;;;;;;;;;;5113263;28;20019;-77
2021/03/09 06:05:58;;;;;;;23.33;13.32;;;;;;;;;;5093688;28;20111;-78
2021/03/09 06:08:24;;;;;;;23.13;13.23;;;;;;;;;;5093155;28;20016;-79
2021/03/09 06:10:51;;;;;;;21.00;12.35;;;;;;;;;;5092767;28;20407;-78
2021/03/09 06:13:33;;;;;;;25.70;13.48;;;;;;;;;;5093176;28;20024;-78
2021/03/09 06:15:59;;;;;;;25.98;14.57;;;;;;;;;;5092608;28;20095;-78
2021/03/09 06:18:26;;;;;;;21.80;13.82;;;;;;;;;;5092630;28;20065;-77
2021/03/09 06:21:08;;;;;;;33.50;17.80;;;;;;;;;;5091350;28;20043;-74
2021/03/09 06:23:35;;;;;;;23.63;14.50;;;;;;;;;;5092668;28;20472;-75
2021/03/09 06:26:01;;;;;;;30.77;16.77;;;;;;;;;;5090132;28;20074;-74
2021/03/09 06:28:31;;;;;;;27.63;16.13;;;;;;;;;;5092021;28;20031;-74
2021/03/09 06:30:59;;;;;;;21.23;12.90;;;;;;;;;;5091775;28;20028;-72
2021/03/09 06:33:31;;;;;;;26.77;14.07;;;;;;;;;;5090464;28;20074;-72
2021/03/09 06:36:00;;;;;;;24.75;14.80;;;;;;;;;;5093356;28;20019;-74
2021/03/09 06:38:27;;;;;;;25.13;13.93;;;;;;;;;;5089276;28;20101;-74
2021/03/09 06:41:07;;;;;;;25.70;14.40;;;;;;;;;;5104198;28;20103;-72
2021/03/09 06:43:34;;;;;;;25.25;13.82;;;;;;;;;;5097632;28;20020;-74
2021/03/09 06:46:12;;;;;;;28.60;16.92;;;;;;;;;;5095650;28;20050;-72
2021/03/09 06:48:39;;;;;;;33.85;17.50;;;;;;;;;;5085942;28;20392;-72
2021/03/09 06:51:05;;;;;;;32.92;18.85;;;;;;;;;;5093586;28;20031;-73
2021/03/09 06:53:32;;;;;;;32.00;16.95;;;;;;;;;;5088785;28;20043;-71
2021/03/09 06:55:58;;;;;;;44.47;22.05;;;;;;;;;;5091773;28;20373;-74
2021/03/09 06:58:31;;;;;;;38.75;19.70;;;;;;;;;;5092193;28;20480;-73
2021/03/09 07:01:15;;;;;;;37.80;22.55;;;;;;;;;;5090578;28;20358;-75
2021/03/09 07:03:42;;;;;;;31.77;17.17;;;;;;;;;;5090645;28;20035;-75
2021/03/09 07:06:08;;;;;;;25.05;15.77;;;;;;;;;;5091654;28;20031;-73
2021/03/09 07:08:34;;;;;;;22.20;13.27;;;;;;;;;;5089024;28;20512;-73
2021/03/09 07:11:00;;;;;;;22.40;12.82;;;;;;;;;;5091231;28;20154;-74
2021/03/09 07:13:27;;;;;;;23.20;14.52;;;;;;;;;;5106243;28;20384;-73
2021/03/09 07:15:55;;;;;;;32.42;14.75;;;;;;;;;;5092375;28;20046;-76
2021/03/09 07:18:22;;;;;;;25.80;14.75;;;;;;;;;;5101059;28;20117;-72
2021/03/09 07:20:49;;;;;;;28.58;17.25;;;;;;;;;;5090413;28;20028;-74
2021/03/09 07:23:18;;;;;;;22.83;13.98;;;;;;;;;;5092132;28;20035;-72
2021/03/09 07:25:46;;;;;;;30.65;16.67;;;;;;;;;;5091139;28;20446;-73
2021/03/09 07:28:14;;;;;;;32.10;18.90;;;;;;;;;;5089754;28;20651;-74
2021/03/09 07:30:42;;;;;;;34.67;18.30;;;;;;;;;;5111261;28;20043;-75
2021/03/09 07:33:08;;;;;;;33.65;18.55;;;;;;;;;;5112753;28;20028;-73
2021/03/09 07:35:35;;;;;;;28.55;17.65;;;;;;;;;;5093795;28;20395;-74
2021/03/09 07:38:03;;;;;;;25.73;16.45;;;;;;;;;;5107433;28;20102;-73
2021/03/09 07:40:31;;;;;;;25.45;14.70;;;;;;;;;;5096687;28;20020;-73
2021/03/09 07:42:57;;;;;;;27.13;15.80;;;;;;;;;;5096692;28;20095;-72
2021/03/09 07:45:24;;;;;;;33.95;18.23;;;;;;;;;;5096972;28;20434;-72
2021/03/09 07:47:52;;;;;;;28.40;16.30;;;;;;;;;;5096514;28;20016;-75
2021/03/09 07:50:19;;;;;;;28.85;16.40;;;;;;;;;;5096282;28;20575;-74
2021/03/09 07:53:00;;;;;;;30.33;18.02;;;;;;;;;;5096584;28;20036;-77
2021/03/09 07:55:27;;;;;;;25.70;15.73;;;;;;;;;;5096403;28;20034;-75
2021/03/09 07:58:11;;;;;;;26.42;15.75;;;;;;;;;;5096290;28;20024;-76
2021/03/09 08:01:01;;;;;;;26.05;14.30;;;;;;;;;;5096674;28;20167;-76
2021/03/09 08:03:28;;;;;;;25.17;15.68;;;;;;;;;;5085845;28;20032;-75
2021/03/09 08:05:54;;;;;;;28.73;18.08;;;;;;;;;;5096302;28;20107;-75
2021/03/09 08:08:39;;;;;;;27.00;15.85;;;;;;;;;;5096611;28;20020;-77
2021/03/09 08:11:06;;;;;;;27.63;15.98;;;;;;;;;;5096277;28;20028;-77
2021/03/09 08:13:32;;;;;;;34.45;19.77;;;;;;;;;;5096393;28;20095;-75
2021/03/09 08:16:17;;;;;;;39.53;21.52;;;;;;;;;;5096047;28;20430;-77
2021/03/09 08:18:43;;;;;;;34.65;18.92;;;;;;;;;;5095946;28;20036;-73
2021/03/09 08:21:10;;;;;;;31.73;18.52;;;;;;;;;;5095761;28;20024;-73
2021/03/09 08:23:45;;;;;;;31.60;20.17;;;;;;;;;;5096120;28;20453;-74
2021/03/09 08:26:14;;;;;;;27.92;17.05;;;;;;;;;;5095990;28;20107;-75
2021/03/09 08:28:41;;;;;;;30.17;14.98;;;;;;;;;;5095592;28;20020;-74
2021/03/09 08:31:10;;;;;;;28.83;17.70;;;;;;;;;;5095781;28;20028;-78
2021/03/09 08:33:37;;;;;;;34.40;21.13;;;;;;;;;;5095979;28;20031;-75
2021/03/09 08:36:23;;;;;;;32.83;18.65;;;;;;;;;;5095406;28;20051;-74
2021/03/09 08:41:28;;;;;;;32.20;17.88;;;;;;;;;;5095533;28;20077;-72
2021/03/09 08:44:13;;;;;;;39.63;16.88;;;;;;;;;;5093733;28;20511;-73
2021/03/09 08:46:54;;;;;;;30.85;15.95;;;;;;;;;;5094080;28;20388;-73
2021/03/09 08:49:36;;;;;;;34.90;18.45;;;;;;;;;;5094893;28;20491;-73
2021/03/09 08:52:09;;;;;;;26.67;15.95;;;;;;;;;;5095207;28;20024;-73
2021/03/09 08:54:45;;;;;;;27.77;16.25;;;;;;;;;;5095397;28;20024;-74
2021/03/09 08:57:17;;;;;;;32.83;18.33;;;;;;;;;;5094698;28;20085;-72
2021/03/09 08:59:45;;;;;;;29.90;17.60;;;;;;;;;;5094780;28;20052;-74
2021/03/09 09:02:14;;;;;;;28.83;16.95;;;;;;;;;;5094929;28;20053;-73
2021/03/09 09:04:45;;;;;;;30.15;16.38;;;;;;;;;;5095297;28;20032;-72
2021/03/09 09:07:26;;;;;;;29.77;16.92;;;;;;;;;;5094880;28;20017;-72
2021/03/09 09:09:54;;;;;;;31.45;19.98;;;;;;;;;;5094908;28;20063;-72
2021/03/09 09:12:25;;;;;;;35.67;20.23;;;;;;;;;;5095067;28;20039;-74
2021/03/09 09:15:00;;;;;;;38.97;21.92;;;;;;;;;;5094711;28;20077;-73
2021/03/09 09:17:27;;;;;;;38.08;19.65;;;;;;;;;;5094068;28;20025;-72
2021/03/09 09:20:00;;;;;;;35.35;20.42;;;;;;;;;;5094659;28;20069;-74
2021/03/09 09:22:27;;;;;;;36.78;23.50;;;;;;;;;;5094652;28;20500;-71
2021/03/09 09:24:57;;;;;;;39.60;20.85;;;;;;;;;;5094281;28;20095;-73
2021/03/09 09:27:24;;;;;;;31.45;19.92;;;;;;;;;;5094107;28;20105;-74
2021/03/09 09:29:54;;;;;;;35.45;20.67;;;;;;;;;;5094524;28;20093;-70
2021/03/09 09:32:20;;;;;;;34.60;20.52;;;;;;;;;;5094133;28;20027;-72
2021/03/09 09:34:46;;;;;;;39.50;21.85;;;;;;;;;;5094272;28;20034;-73
2021/03/09 09:37:14;;;;;;;32.45;16.85;;;;;;;;;;5094653;28;20020;-73
2021/03/09 09:39:41;;;;;;;37.88;24.25;;;;;;;;;;5094516;28;20435;-73
2021/03/09 09:42:18;;;;;;;42.08;24.23;;;;;;;;;;5094595;28;20027;-69
2021/03/09 09:44:45;;;;;;;49.63;25.88;;;;;;;;;;5092903;28;20050;-70
2021/03/09 09:47:13;;;;;;;43.00;24.48;;;;;;;;;;5094449;28;20031;-69
2021/03/09 09:49:42;;;;;;;39.67;22.65;;;;;;;;;;5093863;28;20500;-71
2021/03/09 09:52:15;;;;;;;38.78;22.23;;;;;;;;;;5092986;28;20016;-70
2021/03/09 09:54:51;;;;;;;32.53;19.33;;;;;;;;;;5093517;28;20475;-72
2021/03/09 09:57:17;;;;;;;43.97;24.00;;;;;;;;;;5093988;28;20360;-72
2021/03/09 09:59:43;;;;;;;30.00;17.95;;;;;;;;;;5093649;28;20024;-71
2021/03/09 10:02:15;;;;;;;34.55;18.40;;;;;;;;;;5093648;28;20020;-70
2021/03/09 10:04:42;;;;;;;23.55;15.98;;;;;;;;;;5094086;28;20024;-71
2021/03/09 10:07:18;;;;;;;32.00;19.08;;;;;;;;;;5093553;28;20410;-70
2021/03/09 10:10:04;;;;;;;30.73;18.20;;;;;;;;;;5092863;28;20032;-71
2021/03/09 10:12:35;;;;;;;28.23;18.67;;;;;;;;;;5093875;28;20020;-72
2021/03/09 10:15:01;;;;;;;37.63;20.40;;;;;;;;;;5093928;28;20494;-72
2021/03/09 10:17:27;;;;;;;28.85;19.63;;;;;;;;;;5093829;28;20354;-72
2021/03/09 10:19:54;;;;;;;30.42;17.50;;;;;;;;;;5091676;28;20491;-70
2021/03/09 10:22:21;;;;;;;27.42;16.23;;;;;;;;;;5092288;28;20357;-70
2021/03/09 10:24:48;;;;;;;35.70;23.08;;;;;;;;;;5093578;28;20023;-70
2021/03/09 10:27:15;;;;;;;40.15;25.00;;;;;;;;;;5092197;28;20028;-70
2021/03/09 10:29:43;;;;;;;39.50;24.88;;;;;;;;;;5092015;28;20039;-70
2021/03/09 10:32:18;;;;;;;33.05;19.60;;;;;;;;;;5093475;28;20016;-69
2021/03/09 10:34:49;;;;;;;29.00;17.98;;;;;;;;;;5093453;28;20035;-72
2021/03/09 10:37:16;;;;;;;31.27;16.65;;;;;;;;;;5093584;28;20020;-72
2021/03/09 10:39:56;;;;;;;30.95;18.52;;;;;;;;;;5093420;28;20174;-74
2021/03/09 10:42:36;;;;;;;34.33;20.45;;;;;;;;;;5093326;28;20416;-71
2021/03/09 10:45:20;;;;;;;34.80;21.58;;;;;;;;;;5093304;28;20028;-72
2021/03/09 10:47:49;;;;;;;30.88;18.33;;;;;;;;;;5092044;28;20024;-71
2021/03/09 10:50:16;;;;;;;27.65;18.75;;;;;;;;;;5092934;28;20047;-71
2021/03/09 10:52:42;;;;;;;36.08;22.35;;;;;;;;;;5093447;28;20069;-72
2021/03/09 10:55:09;;;;;;;40.47;23.27;;;;;;;;;;5093408;28;20032;-71
2021/03/09 10:57:35;;;;;;;52.17;28.35;;;;;;;;;;5093227;28;20026;-73
2021/03/09 11:00:03;;;;;;;43.42;28.58;;;;;;;;;;5091735;28;20479;-72
2021/03/09 11:02:29;;;;;;;37.83;24.42;;;;;;;;;;5093040;28;20023;-71
2021/03/09 11:04:55;;;;;;;34.65;22.60;;;;;;;;;;5093235;28;20097;-73
2021/03/09 11:07:22;;;;;;;42.22;21.65;;;;;;;;;;5097295;28;20020;-72
2021/03/09 11:09:49;;;;;;;36.15;21.67;;;;;;;;;;5095821;28;20039;-73
2021/03/09 11:12:15;;;;;;;47.20;25.60;;;;;;;;;;5097405;28;20030;-74
2021/03/09 11:14:41;;;;;;;46.67;25.73;;;;;;;;;;5096878;28;20077;-74
2021/03/09 11:17:07;;;;;;;44.70;26.98;;;;;;;;;;5097093;28;20413;-73
2021/03/09 11:19:33;;;;;;;35.97;21.25;;;;;;;;;;5095687;28;20065;-75
2021/03/09 11:22:01;;;;;;;44.60;26.10;;;;;;;;;;5097025;28;20039;-74
2021/03/09 11:24:27;;;;;;;34.17;19.33;;;;;;;;;;5096805;28;20020;-72
2021/03/09 11:26:59;;;;;;;33.33;17.85;;;;;;;;;;5097171;28;20031;-76
2021/03/09 11:29:25;;;;;;;30.67;20.00;;;;;;;;;;5095631;28;20089;-74
2021/03/09 11:31:51;;;;;;;32.22;18.45;;;;;;;;;;5096853;28;20536;-72
2021/03/09 11:34:17;;;;;;;26.70;15.73;;;;;;;;;;5096524;28;20028;-72
2021/03/09 11:36:44;;;;;;;26.90;16.23;;;;;;;;;;5096550;28;20043;-72
2021/03/09 11:39:11;;;;;;;22.38;15.38;;;;;;;;;;5096869;28;20165;-70
2021/03/09 11:41:38;;;;;;;22.77;13.43;;;;;;;;;;5096260;28;20028;-70
2021/03/09 11:44:06;;;;;;;25.50;15.43;;;;;;;;;;5096465;28;20020;-70
2021/03/09 11:46:33;;;;;;;20.20;12.20;;;;;;;;;;5095029;28;20028;-73
2021/03/09 11:49:00;;;;;;;21.50;12.30;;;;;;;;;;5096283;28;20041;-70
2021/03/09 11:51:27;;;;;;;20.30;11.63;;;;;;;;;;5096681;28;20030;-69
2021/03/09 11:53:53;;;;;;;14.75;8.18;;;;;;;;;;5096350;28;20095;-72
2021/03/09 11:56:19;;;;;;;17.80;10.93;;;;;;;;;;5096706;28;20051;-70
2021/03/09 11:58:47;;;;;;;17.85;10.52;;;;;;;;;;5096337;28;20415;-69
2021/03/09 12:01:13;;;;;;;21.33;11.65;;;;;;;;;;5096208;28;20051;-69
2021/03/09 12:03:40;;;;;;;19.35;12.02;;;;;;;;;;5096523;28;20093;-70
2021/03/09 12:06:06;;;;;;;16.75;10.82;;;;;;;;;;5094755;28;20052;-70
2021/03/09 12:08:32;;;;;;;18.50;11.48;;;;;;;;;;5096403;28;20027;-70
2021/03/09 12:10:58;;;;;;;22.98;10.25;;;;;;;;;;5094474;28;20590;-72
2021/03/09 12:13:24;;;;;;;15.70;9.30;;;;;;;;;;5095470;28;20028;-71
2021/03/09 12:15:50;;;;;;;15.95;8.77;;;;;;;;;;5094681;28;20044;-72
2021/03/09 12:18:17;;;;;;;14.48;9.38;;;;;;;;;;5095237;28;20024;-74
2021/03/09 12:22:23;;;;;;;17.80;10.45;;;;;;;;;;5068366;28;20392;-74
2021/03/09 12:24:49;;;;;;;17.38;10.45;;;;;;;;;;5068887;28;20029;-74
2021/03/09 12:27:16;;;;;;;16.25;10.80;;;;;;;;;;5068261;28;20053;-72
2021/03/09 12:29:42;;;;;;;17.25;9.65;;;;;;;;;;5068334;28;20028;-73
2021/03/09 12:32:08;;;;;;;14.93;8.10;;;;;;;;;;5068827;28;20021;-74
2021/03/09 12:34:34;;;;;;;21.77;11.65;;;;;;;;;;5069020;28;20528;-78
2021/03/09 12:37:00;;;;;;;21.58;11.98;;;;;;;;;;5066823;28;20029;-77
2021/03/09 12:39:27;;;;;;;22.45;12.43;;;;;;;;;;5068403;28;20025;-75
2021/03/09 12:42:39;;;;;;;20.15;13.10;;;;;;;;;;5104609;27;20381;-75
2021/03/09 12:46:07;;;;;;;23.75;14.57;;;;;;;;;;5109387;27;20446;-73
2021/03/09 12:50:12;;;;;;;22.50;14.00;;;;;;;;;;5089190;27;20423;-79
2021/03/09 12:52:39;;;;;;;29.05;16.55;;;;;;;;;;5089082;28;20020;-73
2021/03/09 12:55:09;;;;;;;23.40;12.95;;;;;;;;;;5089081;28;20020;-72
2021/03/09 12:58:45;;;;;;;19.98;12.40;;;;;;;;;;5105444;27;20431;-70
2021/03/09 13:01:11;;;;;;;26.73;17.05;;;;;;;;;;5107197;28;20063;-69
2021/03/09 13:04:10;;;;;;;22.48;12.60;;;;;;;;;;5109193;27;20109;-72
2021/03/09 13:06:36;;;;;;;17.02;9.98;;;;;;;;;;5086632;28;20586;-71
2021/03/09 13:09:04;;;;;;;16.85;10.63;;;;;;;;;;5086949;28;20034;-70
2021/03/09 13:12:46;;;;;;;23.13;12.32;;;;;;;;;;5067891;28;20392;-72
2021/03/09 13:15:12;;;;;;;25.52;14.30;;;;;;;;;;5067813;28;20035;-70
2021/03/09 13:21:16;;;;;;;25.58;16.88;;;;;;;;;;5102959;28;20676;-72
2021/03/09 13:23:45;;;;;;;30.52;14.88;;;;;;;;;;5100155;28;20401;-74
2021/03/09 13:26:11;;;;;;;22.80;13.13;;;;;;;;;;5093593;28;20056;-72
2021/03/09 13:28:38;;;;;;;23.35;12.25;;;;;;;;;;5087890;28;20020;-74
2021/03/09 13:31:04;;;;;;;19.63;12.20;;;;;;;;;;5070535;28;20357;-76
2021/03/09 13:33:30;;;;;;;17.95;11.32;;;;;;;;;;5088143;28;20032;-73
2021/03/09 13:35:57;;;;;;;17.13;9.52;;;;;;;;;;5087351;28;20028;-76
2021/03/09 13:38:23;;;;;;;22.70;13.90;;;;;;;;;;5069642;28;20396;-76
2021/03/09 13:40:50;;;;;;;26.48;10.32;;;;;;;;;;5085689;28;20029;-76
2021/03/09 13:43:17;;;;;;;21.25;13.15;;;;;;;;;;5086954;28;20036;-75
2021/03/09 13:45:43;;;;;;;21.45;13.07;;;;;;;;;;5087842;28;20365;-75
2021/03/09 13:48:10;;;;;;;47.28;28.58;;;;;;;;;;5087085;28;20067;-75
2021/03/09 13:50:36;;;;;;;35.75;20.42;;;;;;;;;;5087037;28;20028;-75
2021/03/09 13:54:54;;;;;;;24.30;13.57;;;;;;;;;;5109226;27;20950;-76
2021/03/09 13:57:21;;;;;;;17.63;11.32;;;;;;;;;;5108674;28;20379;-74
2021/03/09 13:59:47;;;;;;;48.03;30.15;;;;;;;;;;5102396;28;20088;-76
2021/03/09 14:02:14;;;;;;;25.05;15.35;;;;;;;;;;5103010;28;20093;-75
2021/03/09 14:04:40;;;;;;;25.52;16.00;;;;;;;;;;5106446;28;20028;-74
2021/03/09 14:07:06;;;;;;;23.27;14.07;;;;;;;;;;5108948;28;20535;-74
2021/03/09 14:09:33;;;;;;;36.40;22.25;;;;;;;;;;5108716;28;20048;-74
2021/03/09 14:12:01;;;;;;;18.73;12.05;;;;;;;;;;5108539;28;20085;-73
2021/03/09 14:14:27;;;;;;;26.38;14.30;;;;;;;;;;5108820;28;20042;-74
2021/03/09 14:16:53;;;;;;;38.78;22.83;;;;;;;;;;5107673;28;20426;-74
2021/03/09 14:19:38;;;;;;;23.52;14.27;;;;;;;;;;5068829;28;20380;-74
2021/03/09 14:22:05;;;;;;;29.30;17.98;;;;;;;;;;5068034;28;20039;-75
2021/03/09 14:24:31;;;;;;;24.27;14.93;;;;;;;;;;5068369;28;20104;-74
2021/03/09 14:26:57;;;;;;;25.08;13.45;;;;;;;;;;5068945;28;20059;-75
2021/03/09 14:29:23;;;;;;;19.55;11.73;;;;;;;;;;5067709;28;20096;-75
2021/03/09 14:34:06;;;;;;;16.67;10.10;;;;;;;;;;5068640;28;20359;-76
2021/03/09 14:36:32;;;;;;;20.85;10.93;;;;;;;;;;5068338;28;20025;-76
2021/03/09 14:39:28;;;;;;;27.05;15.80;;;;;;;;;;5109075;27;20872;-75
2021/03/09 14:41:54;;;;;;;24.40;14.77;;;;;;;;;;5109014;28;20384;-75
2021/03/09 14:44:20;;;;;;;24.75;13.52;;;;;;;;;;5108597;28;20550;-74